Greene County-Lewis A Jackson Regional (I19)

 

Airport Diagram
No Airport Diagram Available
Current Weather/Forecast (VFR Conditions)
METAR KI19 071355Z AUTO 35004KT 10SM SCT015 08/06 A3004 RMK AO2 T00820056
TAF

Airport Information

All Charts
General
Chart Name View
TAKEOFF MINIMUMS

Approaches
Chart Name Download
RNAV (GPS) RWY 07
RNAV (GPS) RWY 25


Airport Statistics
Departures Arrivals Local
All Collected Stats since June 2016: 9 4 0
2021 Stats: 1 2 0
May Stats: 0 0 0

Inbound Traffic (Arrivals) - 0

No inbound traffic.


Outbound Traffic (Departures) - 0

No outbound traffic.


Local Traffic (Pattern) - 0

No local traffic.